Time;durP1;ratioP1;P1;durP2;ratioP2;P2;SDS_P1;SDS_P2;PMS_P1;PMS_P2;Temp;Humidity;BMP_temperature;BMP_pressure;BME280_temperature;BME280_humidity;BME280_pressure;Samples;Min_cycle;Max_cycle;Signal;HPM_P1;HPM_P2
2023/04/23 00:02:03;;;;;;;11.27;4.70;;;;;;;5.14;85.55;96455.34;5074021;28;20044;-66
2023/04/23 00:04:33;;;;;;;10.13;4.20;;;;;;;5.11;85.75;96458.84;5073976;28;20052;-66
2023/04/23 00:07:05;;;;;;;9.57;4.57;;;;;;;5.11;85.49;96452.81;5073997;28;20127;-66
2023/04/23 00:09:33;;;;;;;10.93;4.10;;;;;;;5.05;86.15;96448.59;5073771;28;20056;-66
2023/04/23 00:12:03;;;;;;;8.27;4.47;;;;;;;5.08;85.81;96450.28;5073943;28;20117;-66
2023/04/23 00:14:30;;;;;;;7.40;4.93;;;;;;;5.07;85.29;96446.84;5073851;28;20052;-66
2023/04/23 00:16:59;;;;;;;16.25;4.45;;;;;;;5.05;86.09;96440.81;5073791;28;20278;-66
2023/04/23 00:19:27;;;;;;;15.18;4.28;;;;;;;5.08;85.35;96445.09;5073758;28;20052;-66
2023/04/23 00:21:54;;;;;;;14.77;4.30;;;;;;;5.07;85.15;96446.84;5073592;28;20500;-66
2023/04/23 00:24:21;;;;;;;10.52;3.78;;;;;;;5.05;85.45;96446.84;5073769;28;20402;-66
2023/04/23 00:26:49;;;;;;;14.15;4.32;;;;;;;5.07;85.26;96449.44;5073667;28;20087;-66
2023/04/23 00:29:16;;;;;;;5.53;3.88;;;;;;;5.05;84.41;96452.03;5073499;28;20413;-66
2023/04/23 00:31:43;;;;;;;15.20;4.00;;;;;;;5.05;83.90;96461.56;5073629;28;20048;-66
2023/04/23 00:34:12;;;;;;;5.80;3.40;;;;;;;5.01;84.02;96450.41;5073465;28;20045;-66
2023/04/23 00:36:39;;;;;;;16.75;4.10;;;;;;;5.00;83.67;96459.03;5073438;28;20040;-66
2023/04/23 00:39:06;;;;;;;15.48;4.60;;;;;;;4.99;83.31;96454.75;5073470;28;20506;-66
2023/04/23 00:41:34;;;;;;;9.38;3.95;;;;;;;4.95;83.35;96452.22;5073458;28;20577;-66
2023/04/23 00:44:02;;;;;;;10.38;3.78;;;;;;;4.93;83.48;96457.44;5073411;28;20502;-65
2023/04/23 00:46:29;;;;;;;13.98;4.10;;;;;;;4.90;83.54;96455.75;5073380;28;20044;-65
2023/04/23 00:48:57;;;;;;;14.48;4.22;;;;;;;4.89;82.67;96455.78;5073406;28;20083;-66
2023/04/23 00:51:26;;;;;;;12.70;3.72;;;;;;;4.82;82.54;96456.75;5073186;28;20045;-66
2023/04/23 00:53:53;;;;;;;15.32;4.38;;;;;;;4.76;82.97;96458.56;5073362;28;20125;-66
2023/04/23 00:56:24;;;;;;;10.30;3.78;;;;;;;4.76;82.95;96457.72;5073012;28;20550;-66
2023/04/23 00:58:52;;;;;;;8.30;3.67;;;;;;;4.73;82.84;96466.38;5072287;28;20095;-66
2023/04/23 01:01:20;;;;;;;8.13;3.78;;;;;;;4.71;83.27;96456.94;5073118;28;20050;-66
2023/04/23 01:03:49;;;;;;;5.50;3.30;;;;;;;4.64;84.24;96464.78;5073045;28;20056;-66
2023/04/23 01:06:17;;;;;;;10.35;3.67;;;;;;;4.58;84.94;96461.47;5073119;28;20571;-66
2023/04/23 01:08:47;;;;;;;9.65;3.40;;;;;;;4.59;85.04;96468.34;5073044;28;20048;-66
2023/04/23 01:11:15;;;;;;;8.48;3.50;;;;;;;4.56;84.68;96464.06;5072907;28;20510;-66
2023/04/23 01:13:43;;;;;;;7.55;3.40;;;;;;;4.55;84.68;96455.44;5072959;28;20048;-65
2023/04/23 01:16:11;;;;;;;8.23;3.50;;;;;;;4.57;84.55;96455.41;5072975;28;20048;-66
2023/04/23 01:18:40;;;;;;;7.07;3.17;;;;;;;4.53;84.42;96467.56;5072803;28;20509;-65
2023/04/23 01:21:09;;;;;;;10.13;3.42;;;;;;;4.51;83.90;96461.53;5072993;28;20044;-66
2023/04/23 01:23:39;;;;;;;5.05;3.17;;;;;;;4.51;84.14;96466.72;5072909;28;20098;-66
2023/04/23 01:26:06;;;;;;;8.13;3.15;;;;;;;4.51;84.68;96469.31;5072898;28;20486;-66
2023/04/23 01:28:34;;;;;;;8.35;3.15;;;;;;;4.46;85.45;96462.50;5072880;28;20051;-65
2023/04/23 01:31:02;;;;;;;11.43;3.58;;;;;;;4.44;85.79;96465.09;5072852;28;20049;-66
2023/04/23 01:33:31;;;;;;;10.00;3.08;;;;;;;4.37;86.06;96463.50;5072901;28;20139;-65
2023/04/23 01:36:00;;;;;;;7.32;3.03;;;;;;;4.28;86.08;96462.72;5072921;28;20124;-66
2023/04/23 01:38:30;;;;;;;17.38;3.53;;;;;;;4.28;86.03;96461.91;5072736;28;20049;-66
2023/04/23 01:40:59;;;;;;;9.45;3.28;;;;;;;4.30;85.62;96460.97;5072900;28;20122;-66
2023/04/23 01:43:28;;;;;;;5.75;3.30;;;;;;;4.31;85.20;96464.44;5072781;28;20045;-65
2023/04/23 01:45:55;;;;;;;6.18;2.75;;;;;;;4.26;85.40;96464.50;5072631;28;20047;-65
2023/04/23 01:48:23;;;;;;;6.82;2.53;;;;;;;4.23;84.71;96463.69;5072616;28;20044;-65
2023/04/23 01:50:51;;;;;;;3.22;2.72;;;;;;;4.22;84.75;96459.38;5072487;28;20059;-65
2023/04/23 01:53:18;;;;;;;7.60;2.80;;;;;;;4.22;84.48;96461.97;5072566;28;20041;-66
2023/04/23 01:55:47;;;;;;;6.45;2.85;;;;;;;4.22;84.35;96468.03;5072547;28;20080;-65
2023/04/23 01:58:16;;;;;;;7.53;3.42;;;;;;;4.23;84.53;96468.84;5072374;28;20052;-65
2023/04/23 02:00:43;;;;;;;5.82;3.10;;;;;;;4.20;84.38;96466.31;5072491;28;20055;-65
2023/04/23 02:03:10;;;;;;;13.48;4.00;;;;;;;4.12;85.10;96469.03;5072585;28;20048;-65
2023/04/23 02:05:40;;;;;;;9.35;3.40;;;;;;;4.17;86.10;96464.63;5072535;28;20551;-65
2023/04/23 02:08:08;;;;;;;10.43;3.20;;;;;;;4.23;85.87;96471.44;5072517;28;20044;-66
2023/04/23 02:10:35;;;;;;;6.75;3.28;;;;;;;4.18;86.06;96468.91;5073782;28;20441;-66
2023/04/23 02:13:03;;;;;;;6.30;3.22;;;;;;;4.24;86.31;96471.41;5076261;28;20057;-65
2023/04/23 02:15:32;;;;;;;7.65;3.22;;;;;;;4.27;85.85;96473.97;5076222;28;20102;-66
2023/04/23 02:17:59;;;;;;;7.32;2.53;;;;;;;4.28;85.28;96477.44;5076135;28;20083;-66
2023/04/23 02:20:26;;;;;;;13.23;3.13;;;;;;;4.26;85.99;96469.69;5076068;28;20102;-66
2023/04/23 02:22:54;;;;;;;10.82;2.90;;;;;;;4.27;85.32;96476.56;5076030;28;20553;-66
2023/04/23 02:25:21;;;;;;;4.55;3.17;;;;;;;4.27;85.29;96478.28;5076018;28;20127;-65
2023/04/23 02:27:48;;;;;;;6.35;2.85;;;;;;;4.30;85.17;96480.84;5075808;28;20048;-65
2023/04/23 02:30:15;;;;;;;7.45;2.72;;;;;;;4.28;84.96;96482.63;5075752;28;20087;-65
2023/04/23 02:32:44;;;;;;;4.00;2.80;;;;;;;4.23;85.10;96477.50;5075862;28;20044;-66
2023/04/23 02:35:11;;;;;;;3.55;2.33;;;;;;;4.20;86.11;96469.75;5075797;28;20075;-65
2023/04/23 02:37:38;;;;;;;7.03;2.78;;;;;;;4.27;86.13;96475.69;5075662;28;20486;-66
2023/04/23 02:40:08;;;;;;;5.05;3.17;;;;;;;4.25;86.41;96470.53;5075698;28;20076;-65
2023/04/23 02:42:35;;;;;;;9.18;2.55;;;;;;;4.15;86.37;96474.13;5075775;28;20083;-65
2023/04/23 02:45:03;;;;;;;5.20;2.75;;;;;;;4.20;86.79;96476.66;5075548;28;20044;-65
2023/04/23 02:47:30;;;;;;;5.45;2.40;;;;;;;4.21;86.92;96471.47;5075558;28;20055;-65
2023/04/23 02:50:01;;;;;;;6.68;3.03;;;;;;;4.21;86.22;96470.63;5075498;28;20055;-65
2023/04/23 02:52:28;;;;;;;4.53;2.83;;;;;;;4.13;86.75;96471.56;5075364;28;20055;-65
2023/04/23 02:54:56;;;;;;;6.15;2.65;;;;;;;4.12;86.61;96475.03;5075487;28;20113;-65
2023/04/23 02:57:23;;;;;;;4.60;3.03;;;;;;;4.12;86.56;96475.03;5075217;28;20040;-65
2023/04/23 02:59:50;;;;;;;12.50;2.63;;;;;;;4.17;86.28;96467.22;5075341;28;20128;-65
2023/04/23 03:02:17;;;;;;;6.70;2.97;;;;;;;4.20;86.15;96476.66;5075297;28;20048;-66
2023/04/23 03:04:45;;;;;;;6.65;2.60;;;;;;;4.17;85.39;96474.97;5075307;28;20044;-66
2023/04/23 03:07:16;;;;;;;6.97;3.10;;;;;;;4.15;85.31;96477.59;5075356;28;20432;-66
2023/04/23 03:09:43;;;;;;;5.25;3.42;;;;;;;4.07;85.66;96478.56;5075180;28;20055;-65
2023/04/23 03:12:10;;;;;;;9.85;2.60;;;;;;;4.09;85.91;96480.25;5075108;28;20139;-65
2023/04/23 03:14:37;;;;;;;5.45;2.78;;;;;;;4.11;86.08;96481.09;5075231;28;20048;-66
2023/04/23 03:17:05;;;;;;;5.05;2.58;;;;;;;4.12;85.81;96490.56;5074978;28;20109;-66
2023/04/23 03:19:32;;;;;;;6.93;2.70;;;;;;;4.11;85.22;96483.69;5074931;28;20512;-66
2023/04/23 03:22:02;;;;;;;8.48;2.20;;;;;;;4.11;84.87;96495.78;5074217;28;20041;-65
2023/04/23 03:24:31;;;;;;;10.00;2.25;;;;;;;4.03;85.43;96488.97;5074942;28;20048;-66
2023/04/23 03:26:58;;;;;;;11.23;2.95;;;;;;;4.02;85.68;96495.03;5074820;28;20053;-66
2023/04/23 03:29:26;;;;;;;8.40;3.15;;;;;;;4.04;85.85;96498.44;5074931;28;20048;-65
2023/04/23 03:31:53;;;;;;;6.82;2.90;;;;;;;4.00;86.38;96496.75;5074560;28;20052;-65
2023/04/23 03:34:20;;;;;;;4.35;2.72;;;;;;;4.04;86.33;96492.41;5074716;28;20072;-65
2023/04/23 03:36:47;;;;;;;11.35;2.60;;;;;;;4.00;85.79;96496.75;5074650;28;20052;-65
2023/04/23 03:39:15;;;;;;;4.25;2.58;;;;;;;4.04;85.06;96506.19;5074608;28;20383;-65
2023/04/23 03:41:43;;;;;;;7.63;2.70;;;;;;;4.07;85.46;96502.75;5074490;28;20139;-65
2023/04/23 03:44:10;;;;;;;7.43;2.90;;;;;;;4.11;85.24;96503.53;5074554;28;20048;-66
2023/04/23 03:46:38;;;;;;;8.55;2.97;;;;;;;4.13;85.73;96504.38;5074511;28;20045;-65
2023/04/23 03:49:05;;;;;;;9.23;3.42;;;;;;;4.16;86.52;96497.41;5074440;28;20164;-65
2023/04/23 03:51:32;;;;;;;7.68;3.10;;;;;;;4.26;86.48;96502.47;5074180;28;20080;-65
2023/04/23 03:53:59;;;;;;;5.57;3.35;;;;;;;4.36;86.95;96503.22;5074362;28;20094;-65
2023/04/23 03:56:28;;;;;;;5.03;3.10;;;;;;;4.45;87.37;96508.25;5074029;28;20410;-66
2023/04/23 03:58:56;;;;;;;7.90;3.38;;;;;;;4.66;87.94;96508.81;5074251;28;20041;-66
2023/04/23 04:01:24;;;;;;;7.65;3.58;;;;;;;5.03;88.55;96502.22;5074092;28;20044;-65
2023/04/23 04:03:51;;;;;;;10.32;3.13;;;;;;;5.40;87.60;96506.78;5074100;28;20141;-65
2023/04/23 04:06:18;;;;;;;7.40;3.15;;;;;;;5.84;87.16;96505.94;5073929;28;20088;-66
2023/04/23 04:08:45;;;;;;;6.82;2.95;;;;;;;6.29;86.14;96509.44;5073980;28;20052;-65
2023/04/23 04:11:12;;;;;;;4.65;2.85;;;;;;;6.80;84.55;96518.69;5074002;28;20129;-65
2023/04/23 04:13:40;;;;;;;4.28;2.63;;;;;;;7.17;81.73;96523.91;5073873;28;20083;-66
2023/04/23 04:16:09;;;;;;;4.88;3.30;;;;;;;7.42;80.44;96520.69;5073816;28;20040;-65
2023/04/23 04:18:38;;;;;;;4.43;2.50;;;;;;;7.55;79.93;96523.81;5073714;28;20059;-66
2023/04/23 04:21:05;;;;;;;6.82;3.10;;;;;;;7.66;79.44;96510.53;5073604;28;20521;-65
2023/04/23 04:23:33;;;;;;;8.75;2.67;;;;;;;7.71;78.41;96524.28;5073633;28;20460;-65
2023/04/23 04:26:01;;;;;;;4.72;2.22;;;;;;;7.61;77.47;96522.81;5073670;28;20414;-65
2023/04/23 04:28:28;;;;;;;10.55;2.85;;;;;;;7.59;77.75;96520.25;5073656;28;20124;-66
2023/04/23 04:30:56;;;;;;;4.72;2.38;;;;;;;7.65;77.70;96521.84;5073495;28;20048;-66
2023/04/23 04:33:25;;;;;;;5.07;2.60;;;;;;;7.70;78.04;96514.75;5073442;28;20098;-66
2023/04/23 04:35:53;;;;;;;8.15;2.90;;;;;;;7.95;78.17;96524.50;5073384;28;20084;-65
2023/04/23 04:38:22;;;;;;;7.47;2.53;;;;;;;8.18;76.86;96526.47;5073572;28;20080;-65
2023/04/23 04:40:51;;;;;;;4.63;2.25;;;;;;;8.50;76.68;96529.03;5073468;28;20495;-65
2023/04/23 04:43:20;;;;;;;2.88;2.00;;;;;;;8.88;76.07;96539.19;5073284;28;20414;-65
2023/04/23 04:45:49;;;;;;;5.82;2.30;;;;;;;9.30;74.55;96540.47;5073356;28;20048;-65
2023/04/23 04:48:17;;;;;;;4.78;2.72;;;;;;;9.79;73.11;96536.28;5073346;28;20045;-65
2023/04/23 04:50:46;;;;;;;6.65;2.58;;;;;;;10.38;71.03;96536.78;5073275;28;20044;-66
2023/04/23 04:53:13;;;;;;;6.72;2.67;;;;;;;10.80;69.31;96544.81;5073143;28;20060;-64
2023/04/23 04:55:41;;;;;;;7.28;2.80;;;;;;;11.25;67.73;96548.31;5073226;28;20084;-65
2023/04/23 04:58:08;;;;;;;4.10;2.30;;;;;;;11.70;67.34;96550.84;5072980;28;20414;-66
2023/04/23 05:00:36;;;;;;;6.72;2.28;;;;;;;12.23;66.62;96541.63;5073091;28;20040;-64
2023/04/23 05:03:04;;;;;;;6.65;2.85;;;;;;;12.74;64.37;96548.91;5073311;28;20383;-65
2023/04/23 05:05:33;;;;;;;8.85;2.50;;;;;;;13.17;62.80;96542.56;5073144;28;20044;-66
2023/04/23 05:08:02;;;;;;;7.43;2.33;;;;;;;13.48;62.12;96545.44;5073193;28;20122;-65
2023/04/23 05:10:29;;;;;;;8.50;2.20;;;;;;;13.80;60.03;96556.16;5072974;28;20048;-64
2023/04/23 05:13:00;;;;;;;4.40;2.50;;;;;;;14.05;58.85;96560.16;5072959;28;20052;-64
2023/04/23 05:15:28;;;;;;;16.25;3.00;;;;;;;14.33;58.69;96555.25;5072911;28;20056;-64
2023/04/23 05:17:56;;;;;;;7.40;2.80;;;;;;;14.68;57.99;96559.53;5073082;28;20102;-64
2023/04/23 05:20:26;;;;;;;9.73;3.00;;;;;;;15.02;56.61;96566.44;5073041;28;20041;-63
2023/04/23 05:22:54;;;;;;;6.43;2.90;;;;;;;15.40;55.91;96564.38;5072955;28;20127;-66
2023/04/23 05:25:23;;;;;;;8.07;3.08;;;;;;;15.65;54.82;96557.69;5073015;28;20399;-64
2023/04/23 05:27:51;;;;;;;9.82;3.40;;;;;;;15.92;54.34;96565.75;5072946;28;20049;-64
2023/04/23 05:30:18;;;;;;;6.80;2.80;;;;;;;16.24;54.19;96558.66;5072792;28;20534;-65
2023/04/23 05:32:46;;;;;;;12.13;3.45;;;;;;;16.53;53.59;96564.81;5072789;28;20048;-66
2023/04/23 05:35:14;;;;;;;9.20;3.03;;;;;;;16.79;52.23;96567.63;5072799;28;20048;-63
2023/04/23 05:37:42;;;;;;;10.63;3.22;;;;;;;16.79;51.74;96564.13;5072728;28;20048;-65
2023/04/23 05:40:12;;;;;;;6.13;3.20;;;;;;;16.80;51.66;96561.38;5072736;28;20044;-65
2023/04/23 05:42:46;;;;;;;9.90;3.28;;;;;;;16.87;51.38;96564.50;5072696;28;20487;-63
2023/04/23 05:45:14;;;;;;;6.30;2.75;;;;;;;16.75;52.08;96560.84;5073314;28;20079;-65
2023/04/23 05:47:44;;;;;;;8.50;3.30;;;;;;;17.10;51.41;96570.13;5076642;28;20090;-65
2023/04/23 05:50:14;;;;;;;4.72;2.65;;;;;;;17.27;50.14;96569.03;5076447;28;20049;-64
2023/04/23 05:52:41;;;;;;;8.50;3.10;;;;;;;17.33;50.13;96570.44;5076553;28;20410;-63
2023/04/23 05:55:10;;;;;;;4.50;3.10;;;;;;;17.47;50.19;96566.91;5076544;28;20548;-65
2023/04/23 05:57:42;;;;;;;6.72;3.20;;;;;;;17.40;50.32;96570.91;5076271;28;20507;-63
2023/04/23 06:00:13;;;;;;;6.50;2.90;;;;;;;17.36;49.14;96579.97;5076631;28;20052;-66
2023/04/23 06:02:40;;;;;;;8.88;3.05;;;;;;;17.29;48.58;96576.88;5076517;28;20127;-66
2023/04/23 06:05:09;;;;;;;8.90;2.92;;;;;;;17.16;49.96;96574.19;5076447;28;20045;-64
2023/04/23 06:07:36;;;;;;;12.30;3.72;;;;;;;17.13;50.39;96571.75;5076352;28;20044;-65
2023/04/23 06:10:07;;;;;;;8.65;3.40;;;;;;;16.72;50.59;96576.00;5076193;28;20056;-66
2023/04/23 06:12:37;;;;;;;10.60;4.25;;;;;;;16.77;50.63;96568.66;5076026;28;20137;-65
2023/04/23 06:15:07;;;;;;;8.90;3.20;;;;;;;16.72;52.45;96570.72;5076142;28;20054;-64
2023/04/23 06:17:36;;;;;;;11.18;4.57;;;;;;;16.84;51.41;96569.97;5075986;28;20129;-67
2023/04/23 06:20:04;;;;;;;10.75;5.65;;;;;;;17.14;53.32;96568.13;5076135;28;20479;-66
2023/04/23 06:22:33;;;;;;;19.63;6.72;;;;;;;17.40;52.00;96574.38;5076137;28;20130;-64
2023/04/23 06:25:00;;;;;;;15.82;6.22;;;;;;;17.72;50.95;96575.00;5076012;28;20048;-66
2023/04/23 06:27:27;;;;;;;11.27;4.88;;;;;;;17.69;47.75;96576.06;5076016;28;20106;-66
2023/04/23 06:29:55;;;;;;;12.02;4.57;;;;;;;17.85;48.21;96575.88;5075814;28;20490;-65
2023/04/23 06:32:26;;;;;;;9.68;3.88;;;;;;;18.09;46.96;96571.69;5075787;28;20058;-66
2023/04/23 06:34:54;;;;;;;11.43;4.25;;;;;;;18.26;44.80;96570.53;5075871;28;20053;-64
2023/04/23 06:37:22;;;;;;;13.93;3.53;;;;;;;18.10;41.68;96568.97;5075663;28;20482;-65
2023/04/23 06:39:49;;;;;;;9.80;3.00;;;;;;;18.10;43.48;96570.72;5075709;28;20178;-65
2023/04/23 06:42:16;;;;;;;8.60;3.03;;;;;;;17.88;43.24;96569.53;5075650;28;20102;-65
2023/04/23 06:44:45;;;;;;;8.85;3.13;;;;;;;17.68;41.50;96571.72;5075679;28;20105;-66
2023/04/23 06:47:12;;;;;;;9.20;3.33;;;;;;;17.64;43.70;96575.53;5075678;28;20140;-66
2023/04/23 06:49:40;;;;;;;8.70;2.92;;;;;;;17.50;44.95;96582.56;5075583;28;20044;-66
2023/04/23 06:52:09;;;;;;;9.35;3.25;;;;;;;17.50;43.50;96574.63;5075434;28;20391;-65
2023/04/23 06:54:36;;;;;;;11.98;3.58;;;;;;;17.41;43.69;96576.09;5075452;28;20049;-65
2023/04/23 06:57:04;;;;;;;6.80;3.10;;;;;;;17.47;46.48;96576.63;5074228;28;20486;-67
2023/04/23 06:59:31;;;;;;;11.45;3.25;;;;;;;17.52;46.21;96577.19;5075481;28;20048;-66
2023/04/23 07:01:59;;;;;;;8.15;2.80;;;;;;;17.49;44.37;96575.56;5075309;28;20148;-65
2023/04/23 07:04:26;;;;;;;8.55;3.42;;;;;;;17.50;45.56;96587.00;5075300;28;20048;-67
2023/04/23 07:06:53;;;;;;;6.85;2.72;;;;;;;17.52;42.82;96587.75;5075239;28;20474;-67
2023/04/23 07:09:24;;;;;;;6.28;2.72;;;;;;;17.42;42.47;96584.84;5075217;28;20136;-66
2023/04/23 07:11:52;;;;;;;6.70;2.78;;;;;;;17.13;42.22;96588.44;5075164;28;20417;-66
2023/04/23 07:14:19;;;;;;;7.95;2.60;;;;;;;17.11;42.99;96590.34;5075160;28;20486;-66
2023/04/23 07:16:47;;;;;;;6.00;3.08;;;;;;;17.21;43.27;96590.59;5074977;28;20040;-66
2023/04/23 07:19:15;;;;;;;5.55;3.00;;;;;;;17.37;42.10;96586.97;5074985;28;20456;-66
2023/04/23 07:21:42;;;;;;;7.53;2.78;;;;;;;17.18;42.49;96590.78;5075018;28;20079;-66
2023/04/23 07:24:10;;;;;;;10.73;3.08;;;;;;;17.14;44.63;96589.28;5074938;28;20401;-67
2023/04/23 07:26:38;;;;;;;14.15;3.00;;;;;;;17.62;39.12;96585.34;5074933;28;20075;-66
2023/04/23 07:29:06;;;;;;;6.15;2.90;;;;;;;17.89;42.37;96585.31;5074846;28;20048;-67
2023/04/23 07:31:34;;;;;;;6.88;2.92;;;;;;;18.15;41.88;96577.41;5074901;28;20055;-67
2023/04/23 07:34:03;;;;;;;10.68;2.90;;;;;;;18.22;43.31;96572.56;5074673;28;20048;-67
2023/04/23 07:36:35;;;;;;;10.35;3.40;;;;;;;18.12;41.54;96582.09;5074808;28;20056;-67
2023/04/23 07:39:04;;;;;;;14.57;3.47;;;;;;;17.96;42.81;96574.28;5074499;28;20410;-66
2023/04/23 07:41:31;;;;;;;10.40;3.33;;;;;;;17.80;42.34;96576.19;5074658;28;20131;-66
2023/04/23 07:44:00;;;;;;;7.60;3.20;;;;;;;17.83;41.08;96577.78;5074498;28;20084;-67
2023/04/23 07:46:27;;;;;;;9.18;3.63;;;;;;;18.40;42.58;96574.91;5074367;28;20066;-67
2023/04/23 07:48:55;;;;;;;7.43;3.08;;;;;;;18.70;40.32;96579.00;5074445;28;20049;-67
2023/04/23 07:51:25;;;;;;;9.63;3.15;;;;;;;18.37;38.36;96575.09;5074397;28;20076;-67
2023/04/23 07:53:53;;;;;;;8.68;3.30;;;;;;;18.16;38.95;96576.50;5074199;28;20052;-66
2023/04/23 07:56:23;;;;;;;10.65;3.00;;;;;;;17.96;37.07;96579.59;5074122;28;20044;-67
2023/04/23 07:58:50;;;;;;;6.78;3.20;;;;;;;17.63;36.32;96576.44;5074264;28;20090;-67
2023/04/23 08:01:19;;;;;;;8.07;3.10;;;;;;;17.33;38.46;96574.91;5074164;28;20135;-67
2023/04/23 08:03:46;;;;;;;9.88;2.80;;;;;;;17.16;40.65;96576.84;5074055;28;20048;-66
2023/04/23 08:06:13;;;;;;;8.20;2.97;;;;;;;16.77;36.88;96574.78;5074048;28;20048;-67
2023/04/23 08:08:40;;;;;;;9.80;3.35;;;;;;;16.84;38.78;96571.75;5073740;28;20401;-67
2023/04/23 08:11:08;;;;;;;6.20;3.22;;;;;;;17.03;39.24;96569.66;5074015;28;20048;-66
2023/04/23 08:13:35;;;;;;;14.02;3.03;;;;;;;17.44;36.87;96575.03;5073769;28;20498;-66
2023/04/23 08:16:03;;;;;;;7.15;2.95;;;;;;;17.90;35.10;96570.28;5073837;28;20056;-67
2023/04/23 08:18:31;;;;;;;6.47;2.90;;;;;;;17.97;32.95;96576.00;5073860;28;20049;-67
2023/04/23 08:20:59;;;;;;;8.35;3.50;;;;;;;17.97;35.83;96570.72;5073745;28;20045;-66
2023/04/23 08:23:26;;;;;;;8.88;2.90;;;;;;;18.31;38.56;96571.09;5073830;28;20383;-68
2023/04/23 08:25:53;;;;;;;6.75;3.17;;;;;;;18.69;36.50;96564.03;5073665;28;20041;-66
2023/04/23 08:28:21;;;;;;;8.43;2.85;;;;;;;18.97;37.95;96555.94;5073649;28;20449;-67
2023/04/23 08:30:48;;;;;;;7.53;2.95;;;;;;;18.88;36.30;96554.81;5073564;28;20053;-67
2023/04/23 08:33:16;;;;;;;8.10;3.10;;;;;;;18.97;35.77;96566.53;5073717;28;20422;-67
2023/04/23 08:35:44;;;;;;;14.82;3.05;;;;;;;19.11;36.23;96565.59;5073482;28;20045;-66
2023/04/23 08:38:12;;;;;;;5.57;3.13;;;;;;;19.24;34.16;96566.38;5073460;28;20053;-65
2023/04/23 08:40:42;;;;;;;6.68;2.92;;;;;;;19.17;37.74;96563.31;5073357;28;20127;-67
2023/04/23 08:43:16;;;;;;;7.38;2.75;;;;;;;19.47;35.97;96563.00;5073479;28;20110;-66
2023/04/23 08:45:46;;;;;;;6.75;2.58;;;;;;;19.43;34.37;96557.94;5073488;28;20067;-66
2023/04/23 08:48:14;;;;;;;7.70;3.53;;;;;;;19.30;35.35;96555.31;5073383;28;20048;-66
2023/04/23 08:50:45;;;;;;;9.40;3.17;;;;;;;19.21;37.35;96553.34;5073433;28;20045;-67
2023/04/23 08:53:19;;;;;;;11.27;3.15;;;;;;;19.65;36.36;96551.00;5073225;28;20048;-67
2023/04/23 08:55:48;;;;;;;12.50;3.35;;;;;;;19.65;37.59;96540.41;5073314;28;20052;-66
2023/04/23 08:58:15;;;;;;;9.98;2.90;;;;;;;19.70;34.65;96551.53;5073112;28;20055;-67
2023/04/23 09:00:43;;;;;;;7.07;3.10;;;;;;;19.31;32.62;96556.16;5073413;28;20063;-66
2023/04/23 09:03:10;;;;;;;6.90;2.65;;;;;;;19.35;36.12;96551.50;5073387;28;20570;-66
2023/04/23 09:05:39;;;;;;;7.57;2.97;;;;;;;19.49;37.35;96542.50;5073185;28;20075;-66
2023/04/23 09:08:08;;;;;;;12.65;2.90;;;;;;;19.59;36.64;96543.50;5073106;28;20088;-67
2023/04/23 09:10:40;;;;;;;7.15;2.80;;;;;;;19.52;38.00;96536.97;5073168;28;20049;-67
2023/04/23 09:13:08;;;;;;;5.53;3.03;;;;;;;19.56;36.91;96541.06;5072724;28;20109;-67
2023/04/23 09:15:42;;;;;;;5.22;2.80;;;;;;;19.36;37.42;96547.88;5073007;28;20148;-66
2023/04/23 09:18:10;;;;;;;5.72;3.05;;;;;;;19.38;36.27;96538.84;5072765;28;20181;-69
2023/04/23 09:20:38;;;;;;;8.00;3.00;;;;;;;19.59;37.79;96546.16;5071767;28;20110;-56
2023/04/23 09:23:08;;;;;;;10.55;2.78;;;;;;;19.79;37.71;96543.81;5072937;28;20132;-63
2023/04/23 09:25:36;;;;;;;9.00;3.50;;;;;;;19.77;36.00;96532.47;5072969;28;20048;-54
2023/04/23 09:28:09;;;;;;;8.32;2.85;;;;;;;19.36;32.64;96534.63;5072987;28;20128;-62
2023/04/23 09:30:39;;;;;;;6.57;2.30;;;;;;;18.81;32.70;96541.13;5072795;28;20048;-62
2023/04/23 09:33:06;;;;;;;11.07;2.55;;;;;;;18.34;35.05;96532.94;5072796;28;20052;-62
2023/04/23 09:35:35;;;;;;;10.40;3.28;;;;;;;18.35;38.49;96529.34;5072869;28;20491;-60
2023/04/23 09:38:06;;;;;;;9.93;2.92;;;;;;;18.23;34.51;96533.69;5072883;28;20510;-60
2023/04/23 09:40:36;;;;;;;6.43;2.45;;;;;;;18.14;34.77;96528.09;5072807;28;20512;-62
2023/04/23 09:43:06;;;;;;;11.45;2.83;;;;;;;17.99;34.23;96518.53;5072738;28;20109;-62
2023/04/23 09:45:35;;;;;;;6.82;2.97;;;;;;;18.11;34.93;96527.44;5072719;28;20136;-57
2023/04/23 09:48:06;;;;;;;11.32;3.30;;;;;;;18.03;36.31;96520.84;5072710;28;20095;-57
2023/04/23 09:50:35;;;;;;;5.80;2.80;;;;;;;18.12;34.12;96526.50;5072690;28;20395;-55
2023/04/23 09:53:06;;;;;;;10.05;3.25;;;;;;;18.04;33.84;96521.72;5072569;28;20053;-66
2023/04/23 09:55:37;;;;;;;8.75;3.00;;;;;;;18.17;36.41;96517.31;5072793;28;20059;-61
2023/04/23 09:58:06;;;;;;;9.55;3.25;;;;;;;18.22;34.26;96518.78;5072386;28;20053;-63
2023/04/23 10:00:35;;;;;;;7.95;2.78;;;;;;;18.04;33.51;96514.63;5072525;28;20132;-57
2023/04/23 10:03:02;;;;;;;11.30;2.65;;;;;;;17.74;34.36;96504.31;5072564;28;20083;-59
2023/04/23 10:05:31;;;;;;;10.75;3.17;;;;;;;17.82;38.95;96507.28;5072559;28;20513;-65
2023/04/23 10:07:59;;;;;;;9.88;2.85;;;;;;;18.04;37.98;96503.19;5072600;28;20127;-61
2023/04/23 10:10:26;;;;;;;7.10;2.35;;;;;;;18.11;34.85;96503.63;5072494;28;20502;-56
2023/04/23 10:12:57;;;;;;;6.45;3.03;;;;;;;18.17;33.53;96509.34;5072511;28;20483;-57
2023/04/23 10:15:26;;;;;;;11.43;3.13;;;;;;;17.97;35.26;96497.47;5072566;28;20208;-65
2023/04/23 10:17:55;;;;;;;5.80;3.08;;;;;;;18.02;33.82;96500.66;5072469;28;20048;-61
2023/04/23 10:20:24;;;;;;;9.85;3.00;;;;;;;18.12;35.40;96489.47;5072513;28;20049;-57
2023/04/23 10:22:55;;;;;;;6.00;2.50;;;;;;;18.48;37.21;96501.03;5072445;28;20052;-58
2023/04/23 10:25:25;;;;;;;8.02;2.60;;;;;;;18.43;34.96;96489.94;5072590;28;20059;-57
2023/04/23 10:27:58;;;;;;;5.57;2.30;;;;;;;18.57;34.05;96494.25;5072425;28;20052;-63
2023/04/23 10:30:27;;;;;;;13.15;3.05;;;;;;;18.46;34.61;96484.44;5072378;28;20102;-59
2023/04/23 10:32:57;;;;;;;5.68;2.45;;;;;;;18.36;34.60;96484.22;5075491;28;20044;-60
2023/04/23 10:35:28;;;;;;;6.90;2.80;;;;;;;18.06;33.44;96483.59;5075973;28;20044;-62
2023/04/23 10:37:56;;;;;;;9.68;2.90;;;;;;;18.10;34.79;96488.69;5075902;28;20076;-56
2023/04/23 10:40:30;;;;;;;6.28;2.65;;;;;;;18.13;33.14;96485.84;5075734;28;20049;-65
2023/04/23 10:43:00;;;;;;;5.13;2.90;;;;;;;17.88;35.01;96475.13;5075727;28;20505;-65
2023/04/23 10:45:32;;;;;;;7.25;2.55;;;;;;;18.05;36.95;96473.13;5075435;28;20045;-64
2023/04/23 10:47:59;;;;;;;4.88;2.70;;;;;;;18.28;37.99;96470.69;5075562;28;20127;-60
2023/04/23 10:50:28;;;;;;;8.30;3.08;;;;;;;18.37;33.34;96475.34;5075547;28;20040;-60
2023/04/23 10:52:57;;;;;;;7.47;2.90;;;;;;;18.01;31.97;96463.69;5075554;28;20040;-64
2023/04/23 10:55:26;;;;;;;6.70;2.83;;;;;;;17.99;31.61;96463.81;5075716;28;20052;-60
2023/04/23 10:57:59;;;;;;;8.23;2.67;;;;;;;17.92;31.88;96466.06;5075181;28;20048;-60
2023/04/23 11:00:28;;;;;;;6.88;2.67;;;;;;;17.71;34.37;96465.72;5075398;28;20124;-59
2023/04/23 11:02:56;;;;;;;8.98;2.28;;;;;;;17.77;33.90;96457.38;5075374;28;20053;-55
2023/04/23 11:05:24;;;;;;;6.68;2.70;;;;;;;17.84;37.12;96457.78;5075242;28;20156;-55
2023/04/23 11:08:05;;;;;;;7.47;2.45;;;;;;;18.01;35.97;96450.47;5075220;28;20083;-60
2023/04/23 11:10:33;;;;;;;5.63;2.80;;;;;;;18.35;35.96;96455.22;5075185;28;20048;-63
2023/04/23 11:13:24;;;;;;;5.25;2.15;;;;;;;17.97;31.08;96463.06;5075169;28;20041;-64
2023/04/23 11:16:13;;;;;;;6.05;2.58;;;;;;;17.80;33.30;96451.00;5075169;28;20056;-58
2023/04/23 11:19:02;;;;;;;6.43;2.38;;;;;;;17.91;33.84;96445.00;5075038;28;20045;-61
2023/04/23 11:21:58;;;;;;;3.13;2.03;;;;;;;17.98;31.73;96450.69;5074462;28;20049;-59
2023/04/23 11:24:27;;;;;;;10.60;2.90;;;;;;;18.11;36.89;96438.31;5074839;28;20044;-56
2023/04/23 11:26:57;;;;;;;4.85;2.33;;;;;;;18.28;35.48;96445.09;5074955;28;20475;-61
2023/04/23 11:29:27;;;;;;;5.70;2.70;;;;;;;18.37;38.73;96440.94;5074830;28;20052;-61
2023/04/23 11:31:56;;;;;;;7.25;2.95;;;;;;;18.62;32.31;96452.41;5074861;28;20406;-59
2023/04/23 11:34:24;;;;;;;7.40;2.90;;;;;;;18.13;32.24;96439.06;5074594;28;20045;-61
2023/04/23 11:36:54;;;;;;;7.07;2.55;;;;;;;17.81;30.75;96442.97;5074621;28;20045;-57
2023/04/23 11:39:28;;;;;;;7.60;3.17;;;;;;;17.94;36.14;96439.44;5074612;28;20076;-57
2023/04/23 11:42:01;;;;;;;5.30;2.45;;;;;;;18.18;35.89;96439.56;5074503;28;20060;-58